ولاية سيدي بلعباس, الجزائر

09:44 AM CET on ابریل 18, 2015 (GMT +0100)
Es Senia | | Change Station
CLOSE
Current Station
Airport
Location: Oran,
Elevation: 295 ft
Nearby Weather Stations

Elev 295 ft 35.63 °N, 0.60 °W | Updated 14 minutes ago

Scattered Clouds
غيوم متفرقة
63 °F
Feels Like 63 °F
N
10
ريح متغير ريح from جنوب غربی

هذا اليوم
High -- | Low -- °F
--% Chance of Precip.
Yesterday
High -- | Low -- °F
Precip. -- في
6:27 AM 7:37 PM
الهلال الأخير, 0% visible
الضغط 30.01 في
وضوح الرؤية 6.2 أميال
سحابات غيوم متفرقة 1000 ft
غيوم متفرقة 1600 ft
نقطة الندى 57 °F
الرطوبة 82%
Rainfall 0.00 في
عمق الثلج Not available.
الأشعة فوق البنفسجية 4 out of 12
Pollen Not available.
جودة الهواء Not available.
Flu Activity Not available.
METAR DAOO 180830Z 22009KT 9999 SCT010 SCT016 17/14 Q1016

More Conditions Fewer Conditions

الضغط 30.01 في
وضوح الرؤية 6.2 أميال
سحابات غيوم متفرقة 1000 ft
غيوم متفرقة 1600 ft
نقطة الندى 57 °F
الرطوبة 82%
Rainfall 0.00 في
عمق الثلج Not available.
الأشعة فوق البنفسجية 4 out of 12
Pollen Not available.
جودة الهواء Not available.
Flu Activity Not available.
METAR DAOO 180830Z 22009KT 9999 SCT010 SCT016 17/14 Q1016

More Conditions Fewer Conditions

10-Day Weather Forecast

Almanac

علم الفلك

Apr. 18, 2015 Rise Set
Actual Time
Civil Twilight
Nautical Twilight
Astronomical Twilight
قمر
Length Of Visible Light
طول الیوم
Tomorrow will be .
, % of the Moon is Illuminated

Today's Extremes

Country Highs Country Lows

Community

WunderPhotos

Upload Photos

1,814,345 photos uploaded!

WunderBlogs® & News

Nearby

جودة الهواء

  جودة الهواء AQ Index Pollutant
Not available.

عمق الثلج

Station Depth Elevation

Earthquake Activity

City Distance Mag. Time & Date
Minimum magnitude displayed is 2.5.

Coastal Water Temperatures

مكان درجات الحرارة

Stations

Nearby Weather Stations

Station Location الحرارة رياح باردة نقطة الندى الرطوبة ريح Precip. Elev تحديث Type